Time;durP1;ratioP1;P1;durP2;ratioP2;P2;SDS_P1;SDS_P2;PMS_P1;PMS_P2;Temp;Humidity;BMP_temperature;BMP_pressure;BME280_temperature;BME280_humidity;BME280_pressure;Samples;Min_cycle;Max_cycle;Signal;HPM_P1;HPM_P2
2021/05/07 00:01:10;;;;;;;16.25;1.98;;;16.70;99.90;;;;;;6213873;23;20005;-80
2021/05/07 00:03:36;;;;;;;7.70;1.70;;;16.70;99.90;;;;;;6204972;23;20091;-80
2021/05/07 00:06:04;;;;;;;10.27;2.40;;;16.70;99.90;;;;;;6213758;23;20009;-80
2021/05/07 00:08:32;;;;;;;4.75;1.70;;;16.70;99.90;;;;;;6212975;23;20024;-80
2021/05/07 00:11:00;;;;;;;11.20;1.83;;;16.60;99.90;;;;;;6213649;23;19997;-81
2021/05/07 00:13:27;;;;;;;14.73;2.65;;;16.60;99.90;;;;;;6212863;23;20004;-80
2021/05/07 00:15:53;;;;;;;10.52;2.50;;;16.60;99.90;;;;;;6212096;23;20087;-80
2021/05/07 00:18:19;;;;;;;9.82;2.05;;;16.60;99.90;;;;;;6211432;23;20055;-80
2021/05/07 00:20:44;;;;;;;10.10;2.15;;;16.60;99.90;;;;;;6213442;23;20005;-80
2021/05/07 00:23:10;;;;;;;6.95;2.50;;;16.60;99.90;;;;;;6211153;23;20008;-79
2021/05/07 00:25:37;;;;;;;6.72;2.05;;;16.60;99.90;;;;;;6213147;23;20028;-80
2021/05/07 00:28:11;;;;;;;11.17;2.60;;;16.60;99.90;;;;;;6212732;23;20008;-79
2021/05/07 00:30:38;;;;;;;6.18;1.80;;;16.60;99.90;;;;;;6213054;23;20001;-81
2021/05/07 00:33:04;;;;;;;;;;;16.60;99.90;;;;;;6213893;23;20004;-81
2021/05/07 00:35:30;;;;;;;11.77;2.50;;;16.60;99.90;;;;;;6211437;23;19911;-82
2021/05/07 00:37:56;;;;;;;10.27;2.00;;;16.60;99.90;;;;;;6213158;23;20001;-81
2021/05/07 00:40:23;;;;;;;7.07;2.83;;;16.50;99.90;;;;;;6213090;23;20436;-82
2021/05/07 00:42:49;;;;;;;8.60;1.83;;;16.50;99.90;;;;;;6212861;23;20001;-79
2021/05/07 00:45:16;;;;;;;13.98;2.40;;;16.50;99.90;;;;;;6213012;23;20008;-79
2021/05/07 00:47:54;;;;;;;13.50;2.92;;;16.50;99.90;;;;;;6213145;23;20009;-79
2021/05/07 00:50:20;;;;;;;13.27;2.70;;;16.40;99.90;;;;;;6212876;23;20000;-82
2021/05/07 00:52:46;;;;;;;7.35;2.15;;;16.50;99.90;;;;;;6213261;23;20005;-80
2021/05/07 00:55:12;;;;;;;15.45;2.05;;;16.50;99.90;;;;;;6211249;23;20343;-79
2021/05/07 00:57:39;;;;;;;13.85;2.15;;;16.40;99.90;;;;;;6211650;23;20009;-84
2021/05/07 01:00:08;;;;;;;9.30;2.30;;;16.40;99.90;;;;;;6211352;23;20032;-79
2021/05/07 01:02:34;;;;;;;8.90;2.25;;;16.50;99.90;;;;;;6211704;23;20079;-78
2021/05/07 01:05:01;;;;;;;8.93;2.13;;;16.50;99.90;;;;;;6211023;23;20055;-78
2021/05/07 01:07:27;;;;;;;10.90;2.83;;;16.50;99.90;;;;;;6212567;23;20009;-78
2021/05/07 01:09:53;;;;;;;7.60;2.30;;;16.50;99.90;;;;;;6211356;23;20008;-81
2021/05/07 01:12:19;;;;;;;9.65;2.30;;;16.40;99.90;;;;;;6186250;23;20005;-81
2021/05/07 01:15:04;;;;;;;8.20;2.00;;;16.50;99.90;;;;;;6212450;23;20004;-81
2021/05/07 01:17:30;;;;;;;7.72;1.83;;;16.60;99.90;;;;;;6212831;23;20524;-81
2021/05/07 01:19:55;;;;;;;11.60;2.30;;;16.60;99.90;;;;;;6212760;23;20008;-82
2021/05/07 01:22:21;;;;;;;11.90;2.55;;;16.50;99.90;;;;;;6212542;23;20339;-83
2021/05/07 01:24:48;;;;;;;13.07;2.05;;;16.50;99.90;;;;;;6185925;23;20031;-82
2021/05/07 01:27:14;;;;;;;;;;;16.40;99.90;;;;;;6213169;23;20092;-81
2021/05/07 01:29:40;;;;;;;7.10;2.47;;;16.40;99.90;;;;;;6211088;23;19931;-80
2021/05/07 01:32:05;;;;;;;9.35;2.60;;;16.30;99.90;;;;;;6211148;23;20036;-80
2021/05/07 01:34:31;;;;;;;15.27;2.38;;;16.20;99.90;;;;;;6185427;23;20008;-79
2021/05/07 01:36:57;;;;;;;12.13;2.22;;;16.20;99.90;;;;;;6212692;23;20091;-81
2021/05/07 01:39:22;;;;;;;10.25;2.38;;;16.10;99.90;;;;;;6212274;23;20373;-80
2021/05/07 01:41:48;;;;;;;17.67;2.45;;;16.00;99.90;;;;;;6212735;23;20000;-80
2021/05/07 01:44:14;;;;;;;11.30;2.85;;;16.00;99.90;;;;;;6212490;23;20008;-81
2021/05/07 01:46:39;;;;;;;9.48;2.47;;;16.00;99.90;;;;;;6211086;23;20299;-79
2021/05/07 01:49:05;;;;;;;9.38;2.85;;;15.90;99.90;;;;;;6212341;23;20013;-81
2021/05/07 01:51:31;;;;;;;14.13;2.72;;;15.90;99.90;;;;;;6212540;23;20015;-80
2021/05/07 01:53:56;;;;;;;12.45;3.33;;;15.90;99.90;;;;;;6211935;23;20072;-79
2021/05/07 01:56:22;;;;;;;8.65;2.47;;;15.90;99.90;;;;;;6212525;23;20428;-80
2021/05/07 01:58:48;;;;;;;5.57;2.00;;;15.90;99.90;;;;;;6211935;23;20001;-81
2021/05/07 02:01:13;;;;;;;11.93;2.45;;;15.90;99.90;;;;;;6212895;23;20008;-81
2021/05/07 02:03:39;;;;;;;11.35;2.67;;;15.90;99.90;;;;;;6210406;23;20436;-80
2021/05/07 02:06:05;;;;;;;12.27;2.70;;;15.80;99.90;;;;;;6212197;23;20011;-81
2021/05/07 02:08:30;;;;;;;11.70;4.00;;;15.80;99.90;;;;;;6211755;23;20534;-81
2021/05/07 02:10:56;;;;;;;8.43;2.28;;;15.80;99.90;;;;;;6185699;23;20039;-81
2021/05/07 02:13:22;;;;;;;12.10;2.88;;;15.70;99.90;;;;;;6210347;23;20051;-82
2021/05/07 02:15:48;;;;;;;16.67;2.80;;;15.70;99.90;;;;;;6210363;23;20004;-82
2021/05/07 02:18:13;;;;;;;11.40;2.92;;;15.70;99.90;;;;;;6211188;23;20079;-81
2021/05/07 02:20:40;;;;;;;10.10;2.90;;;15.70;99.90;;;;;;6212232;23;20075;-81
2021/05/07 02:23:06;;;;;;;15.75;2.97;;;15.80;99.90;;;;;;6212168;23;20251;-81
2021/05/07 02:25:32;;;;;;;8.68;2.53;;;15.80;99.90;;;;;;6212063;23;20317;-81
2021/05/07 02:27:58;;;;;;;7.40;2.90;;;15.90;99.90;;;;;;6212103;23;20015;-78
2021/05/07 02:30:29;;;;;;;16.60;2.92;;;15.90;99.90;;;;;;6212056;23;20001;-80
2021/05/07 02:32:55;;;;;;;15.57;2.78;;;15.90;99.90;;;;;;6212052;23;20000;-79
2021/05/07 02:35:22;;;;;;;11.00;2.33;;;15.90;99.90;;;;;;6211628;23;20012;-79
2021/05/07 02:37:48;;;;;;;6.68;2.45;;;15.90;99.90;;;;;;6212059;23;20032;-78
2021/05/07 02:40:14;;;;;;;13.07;2.40;;;15.90;99.90;;;;;;6210449;23;20040;-79
2021/05/07 02:42:40;;;;;;;18.80;2.28;;;15.90;99.90;;;;;;6211638;23;20321;-78
2021/05/07 02:45:08;;;;;;;9.25;2.30;;;15.90;99.90;;;;;;6210117;23;20424;-79
2021/05/07 02:47:35;;;;;;;8.75;3.05;;;16.00;99.90;;;;;;6211849;23;20448;-79
2021/05/07 02:50:02;;;;;;;9.20;2.88;;;16.10;99.90;;;;;;6211647;23;20008;-80
2021/05/07 02:52:28;;;;;;;17.95;4.68;;;16.20;99.90;;;;;;6211811;23;20083;-79
2021/05/07 02:54:54;;;;;;;15.15;3.13;;;16.20;99.90;;;;;;6211811;23;20082;-79
2021/05/07 02:57:20;;;;;;;12.50;2.50;;;16.20;99.90;;;;;;6210432;23;20028;-79
2021/05/07 02:59:45;;;;;;;13.57;3.40;;;16.20;99.90;;;;;;6209708;23;20016;-79
2021/05/07 03:02:11;;;;;;;8.18;2.30;;;16.20;99.90;;;;;;6212097;23;20062;-79
2021/05/07 03:04:37;;;;;;;10.23;2.55;;;16.20;99.90;;;;;;6211551;23;20039;-79
2021/05/07 03:07:03;;;;;;;13.02;3.03;;;16.30;99.90;;;;;;6212070;23;20001;-79
2021/05/07 03:09:28;;;;;;;15.82;2.63;;;16.30;99.90;;;;;;6211606;23;20336;-79
2021/05/07 03:11:57;;;;;;;9.00;2.33;;;16.20;99.90;;;;;;6210589;23;20058;-79
2021/05/07 03:14:24;;;;;;;6.63;2.03;;;16.10;99.90;;;;;;6211515;23;20080;-79
2021/05/07 03:16:51;;;;;;;17.65;2.67;;;16.10;99.90;;;;;;6210245;23;20001;-78
2021/05/07 03:19:17;;;;;;;7.28;2.47;;;16.10;99.90;;;;;;6210235;23;20009;-78
2021/05/07 03:21:43;;;;;;;7.57;2.60;;;16.10;99.90;;;;;;6211870;23;20047;-78
2021/05/07 03:24:09;;;;;;;7.97;2.72;;;16.10;99.90;;;;;;6211476;23;20005;-79
2021/05/07 03:26:35;;;;;;;19.67;4.22;;;16.20;99.90;;;;;;6211859;23;20084;-78
2021/05/07 03:29:00;;;;;;;11.35;2.33;;;16.10;99.90;;;;;;6184676;23;20040;-79
2021/05/07 03:31:26;;;;;;;9.73;2.97;;;16.20;99.90;;;;;;6185198;23;20105;-78
2021/05/07 03:33:52;;;;;;;15.68;2.83;;;16.30;99.90;;;;;;6211425;23;20011;-78
2021/05/07 03:36:18;;;;;;;7.72;2.17;;;16.30;99.90;;;;;;6211347;23;20427;-78
2021/05/07 03:38:43;;;;;;;6.72;2.30;;;16.20;99.90;;;;;;6211357;23;19993;-78
2021/05/07 03:41:09;;;;;;;16.98;3.25;;;16.30;99.90;;;;;;6211787;23;20012;-79
2021/05/07 03:43:35;;;;;;;9.77;2.30;;;16.30;99.90;;;;;;6211450;23;20372;-78
2021/05/07 03:46:02;;;;;;;12.88;2.92;;;16.20;99.90;;;;;;6211808;23;20055;-81
2021/05/07 03:48:27;;;;;;;17.97;2.63;;;16.20;99.90;;;;;;6211520;23;20468;-79
2021/05/07 03:50:54;;;;;;;13.25;2.90;;;16.20;99.90;;;;;;6209872;23;20004;-79
2021/05/07 03:53:21;;;;;;;13.90;2.17;;;16.20;99.90;;;;;;6211690;23;20016;-82
2021/05/07 03:55:48;;;;;;;9.02;2.08;;;16.20;99.90;;;;;;6211668;23;19993;-82
2021/05/07 03:58:14;;;;;;;10.45;2.38;;;16.30;99.90;;;;;;6211508;23;20066;-81
2021/05/07 04:00:40;;;;;;;16.55;3.10;;;16.40;99.90;;;;;;6209827;23;20005;-80
2021/05/07 04:03:06;;;;;;;12.07;2.42;;;16.40;99.90;;;;;;6212411;23;20439;-81
2021/05/07 04:05:32;;;;;;;16.97;2.67;;;16.30;99.90;;;;;;6213439;23;20000;-80
2021/05/07 04:10:43;;;;;;;8.25;1.83;;;16.30;99.90;;;;;;6215162;23;20035;-83
2021/05/07 04:15:38;;;;;;;13.60;2.30;;;16.20;99.90;;;;;;6213651;23;20020;-81
2021/05/07 04:18:04;;;;;;;12.40;2.38;;;16.20;99.90;;;;;;6214661;23;19997;-80
2021/05/07 04:20:29;;;;;;;14.52;2.65;;;16.10;99.90;;;;;;6212891;23;20080;-80
2021/05/07 04:22:55;;;;;;;8.95;2.08;;;16.10;99.90;;;;;;6187793;23;20035;-80
2021/05/07 04:25:21;;;;;;;6.35;1.98;;;16.20;99.90;;;;;;6214394;23;19997;-81
2021/05/07 04:27:47;;;;;;;11.38;2.17;;;16.20;99.90;;;;;;6214588;23;20075;-79
2021/05/07 04:30:13;;;;;;;11.73;2.50;;;16.20;99.90;;;;;;6214239;23;20434;-76
2021/05/07 04:32:39;;;;;;;12.90;3.03;;;16.30;99.90;;;;;;6214549;23;19997;-78
2021/05/07 04:35:05;;;;;;;8.68;2.03;;;16.30;99.90;;;;;;6213894;23;20020;-78
2021/05/07 04:37:31;;;;;;;12.67;2.53;;;16.30;99.90;;;;;;6187797;23;20001;-78
2021/05/07 04:39:56;;;;;;;13.07;2.28;;;16.40;99.90;;;;;;6213040;23;20324;-77
2021/05/07 04:42:22;;;;;;;11.13;2.40;;;16.50;99.90;;;;;;6214118;23;20028;-77
2021/05/07 04:44:48;;;;;;;7.60;2.13;;;16.60;99.90;;;;;;6213346;23;20383;-76
2021/05/07 04:47:13;;;;;;;8.68;1.58;;;16.60;99.90;;;;;;6213859;23;20005;-77
2021/05/07 04:49:39;;;;;;;12.32;2.30;;;16.60;99.90;;;;;;6187029;23;20004;-77
2021/05/07 04:52:05;;;;;;;9.00;2.22;;;16.60;99.90;;;;;;6213627;23;20090;-77
2021/05/07 04:54:34;;;;;;;9.80;2.23;;;16.70;99.90;;;;;;6213400;23;20004;-77
2021/05/07 04:57:00;;;;;;;7.88;2.80;;;16.60;99.90;;;;;;6213487;23;20036;-77
2021/05/07 04:59:25;;;;;;;11.88;2.30;;;16.70;99.90;;;;;;6213430;23;20455;-77
2021/05/07 05:01:51;;;;;;;7.32;2.20;;;16.60;99.90;;;;;;6213973;23;20001;-78
2021/05/07 05:04:17;;;;;;;12.82;2.33;;;16.70;99.90;;;;;;6210747;23;20463;-78
2021/05/07 05:06:42;;;;;;;9.52;2.42;;;16.70;99.90;;;;;;6208459;23;20428;-78
2021/05/07 05:09:08;;;;;;;16.60;5.32;;;16.80;99.90;;;;;;6209520;23;20019;-78
2021/05/07 05:11:34;;;;;;;28.13;8.23;;;16.80;99.90;;;;;;6209770;23;20452;-78
2021/05/07 05:14:00;;;;;;;29.95;5.88;;;16.90;99.90;;;;;;6209312;23;20471;-79
2021/05/07 05:16:26;;;;;;;20.30;3.25;;;16.90;99.90;;;;;;6209232;23;20027;-79
2021/05/07 05:18:52;;;;;;;16.67;3.92;;;16.90;99.90;;;;;;6209633;23;20005;-78
2021/05/07 05:21:17;;;;;;;34.97;7.85;;;16.90;99.90;;;;;;6208288;23;20044;-78
2021/05/07 05:23:43;;;;;;;14.50;2.50;;;16.90;99.90;;;;;;6209415;23;20091;-79
2021/05/07 05:26:09;;;;;;;12.80;2.38;;;16.90;99.90;;;;;;6209753;23;20420;-79
2021/05/07 05:28:36;;;;;;;11.13;2.20;;;17.00;99.90;;;;;;6209426;23;20013;-79
2021/05/07 05:31:02;;;;;;;17.88;2.60;;;17.00;99.90;;;;;;6209478;23;20001;-78
2021/05/07 05:33:28;;;;;;;12.23;3.20;;;17.00;99.90;;;;;;6209440;23;20019;-79
2021/05/07 05:35:54;;;;;;;11.73;2.20;;;17.00;99.90;;;;;;6209171;23;20017;-78
2021/05/07 05:38:20;;;;;;;14.93;2.78;;;17.00;99.90;;;;;;6209202;23;20390;-80
2021/05/07 05:40:46;;;;;;;17.60;2.63;;;17.00;99.90;;;;;;6208972;23;20370;-79
2021/05/07 05:43:12;;;;;;;20.52;4.15;;;17.10;99.90;;;;;;6208337;23;20004;-77
2021/05/07 05:45:38;;;;;;;12.13;3.47;;;17.10;99.90;;;;;;6182205;23;20088;-78
2021/05/07 05:48:08;;;;;;;10.98;2.65;;;17.10;99.90;;;;;;6207977;23;20016;-79
2021/05/07 05:50:37;;;;;;;16.52;2.38;;;17.10;99.90;;;;;;6208559;23;20519;-78
2021/05/07 05:53:04;;;;;;;14.02;2.95;;;17.10;99.90;;;;;;6207957;23;20091;-78
2021/05/07 05:55:30;;;;;;;8.52;2.60;;;17.10;99.90;;;;;;6207525;23;20039;-80
2021/05/07 05:57:55;;;;;;;10.45;2.13;;;17.00;99.90;;;;;;6206585;23;20008;-80
2021/05/07 06:00:22;;;;;;;14.90;3.17;;;17.00;99.90;;;;;;6207106;23;20016;-78
2021/05/07 06:02:48;;;;;;;23.75;3.75;;;17.00;99.90;;;;;;6212453;23;20135;-78
2021/05/07 06:05:14;;;;;;;12.27;3.33;;;17.00;99.90;;;;;;6212145;23;20028;-79
2021/05/07 06:07:41;;;;;;;42.65;11.43;;;17.10;99.90;;;;;;6212015;23;20091;-79
2021/05/07 06:10:10;;;;;;;162.15;42.08;;;17.10;99.90;;;;;;6210481;23;20015;-78
2021/05/07 06:12:36;;;;;;;22.13;5.65;;;17.20;99.90;;;;;;6212197;23;20043;-79
2021/05/07 06:15:02;;;;;;;14.40;2.40;;;17.20;99.90;;;;;;6212115;23;20000;-79
2021/05/07 06:17:28;;;;;;;20.05;3.78;;;17.20;99.90;;;;;;6212163;23;20025;-80
2021/05/07 06:19:53;;;;;;;57.22;12.05;;;17.20;99.90;;;;;;6210033;23;20008;-77
2021/05/07 06:22:19;;;;;;;17.95;4.82;;;17.20;99.90;;;;;;6211928;23;19996;-78
2021/05/07 06:24:45;;;;;;;15.95;4.88;;;17.20;99.90;;;;;;6209694;23;20030;-79
2021/05/07 06:27:12;;;;;;;13.73;2.78;;;17.20;99.90;;;;;;6212327;23;19996;-79
2021/05/07 06:29:37;;;;;;;15.02;2.60;;;17.20;99.90;;;;;;6211764;23;20021;-79
2021/05/07 06:32:03;;;;;;;14.93;2.40;;;17.20;99.90;;;;;;6212238;23;20005;-80
2021/05/07 06:34:29;;;;;;;14.85;2.08;;;17.10;99.90;;;;;;6211616;23;20004;-79
2021/05/07 06:36:54;;;;;;;19.10;3.22;;;17.10;99.90;;;;;;6210284;23;20420;-80
2021/05/07 06:39:20;;;;;;;27.58;2.70;;;17.10;99.90;;;;;;6211666;23;20013;-80
2021/05/07 06:41:46;;;;;;;11.85;3.75;;;17.10;99.90;;;;;;6212396;23;20001;-80
2021/05/07 06:44:12;;;;;;;13.90;2.67;;;17.10;99.90;;;;;;6211583;23;20540;-81
2021/05/07 06:46:37;;;;;;;7.90;2.10;;;17.10;99.90;;;;;;6185688;23;20075;-83
2021/05/07 06:49:04;;;;;;;7.60;2.60;;;17.10;99.90;;;;;;6211802;23;20392;-79
2021/05/07 06:51:29;;;;;;;17.42;2.72;;;17.20;99.90;;;;;;6212006;23;20001;-81
2021/05/07 06:53:55;;;;;;;23.52;3.70;;;17.20;99.90;;;;;;6211737;23;20462;-81
2021/05/07 06:56:21;;;;;;;11.82;3.00;;;17.30;99.90;;;;;;6211544;23;20084;-80
2021/05/07 06:58:50;;;;;;;12.88;3.13;;;17.30;99.90;;;;;;6210449;23;20455;-79
2021/05/07 07:01:16;;;;;;;16.83;2.97;;;17.30;99.90;;;;;;6211465;23;20076;-79
2021/05/07 07:03:42;;;;;;;21.38;5.25;;;17.30;99.90;;;;;;6211911;23;20003;-79
2021/05/07 07:06:08;;;;;;;63.58;15.82;;;17.20;99.90;;;;;;6210338;23;20568;-79
2021/05/07 07:08:34;;;;;;;32.25;8.57;;;17.20;99.90;;;;;;6211740;23;20017;-79
2021/05/07 07:11:00;;;;;;;57.13;11.77;;;17.30;99.90;;;;;;6211802;23;20503;-79
2021/05/07 07:13:27;;;;;;;48.03;12.65;;;17.30;99.90;;;;;;6211066;23;20020;-79
2021/05/07 07:15:53;;;;;;;57.88;14.20;;;17.30;99.90;;;;;;6212007;23;20003;-79
2021/05/07 07:18:22;;;;;;;82.47;20.40;;;17.30;99.90;;;;;;6211880;23;20001;-80
2021/05/07 07:20:48;;;;;;;54.70;15.60;;;17.40;99.90;;;;;;6211119;23;20027;-79
2021/05/07 07:23:15;;;;;;;28.60;9.02;;;17.30;99.90;;;;;;6211433;23;20001;-79
2021/05/07 07:25:42;;;;;;;81.20;22.08;;;17.30;99.90;;;;;;6211739;23;20007;-79
2021/05/07 07:28:09;;;;;;;64.30;15.93;;;17.30;99.90;;;;;;6211656;23;20022;-80
2021/05/07 07:30:35;;;;;;;26.15;5.57;;;17.30;99.90;;;;;;6211118;23;20008;-79
2021/05/07 07:33:01;;;;;;;15.88;3.08;;;17.30;99.90;;;;;;6185019;23;20009;-81
2021/05/07 07:35:26;;;;;;;20.58;7.60;;;17.40;99.90;;;;;;6209643;23;20008;-82
2021/05/07 07:37:52;;;;;;;34.95;10.55;;;17.40;99.90;;;;;;6213709;23;20317;-81
2021/05/07 07:40:18;;;;;;;39.70;9.85;;;17.40;99.90;;;;;;6213791;23;20001;-80
2021/05/07 07:42:44;;;;;;;46.92;12.25;;;17.40;99.90;;;;;;6213431;23;20007;-80
2021/05/07 07:45:11;;;;;;;39.53;10.10;;;17.50;99.90;;;;;;6212965;23;20009;-80
2021/05/07 07:47:37;;;;;;;44.47;9.23;;;17.40;99.90;;;;;;6213606;23;20005;-81
2021/05/07 07:50:07;;;;;;;29.83;5.78;;;17.50;99.90;;;;;;6213407;23;20004;-80
2021/05/07 07:52:33;;;;;;;25.75;5.60;;;17.50;99.90;;;;;;6213367;23;20004;-79
2021/05/07 07:55:00;;;;;;;16.30;2.37;;;17.40;99.90;;;;;;6213611;23;20073;-79
2021/05/07 07:57:26;;;;;;;25.45;5.88;;;17.40;99.90;;;;;;6187280;23;20039;-79
2021/05/07 07:59:52;;;;;;;38.97;9.53;;;17.40;99.90;;;;;;6211469;23;20008;-80
2021/05/07 08:02:18;;;;;;;44.90;9.48;;;17.30;99.90;;;;;;6210015;23;20008;-79
2021/05/07 08:04:43;;;;;;;12.88;3.13;;;17.30;99.90;;;;;;6211902;23;20309;-81
2021/05/07 08:07:09;;;;;;;12.43;2.70;;;17.30;99.90;;;;;;6212610;23;20527;-79
2021/05/07 08:09:36;;;;;;;8.30;2.53;;;17.20;99.90;;;;;;6213184;23;20438;-80
2021/05/07 08:12:02;;;;;;;10.65;2.25;;;17.20;99.90;;;;;;6186759;23;20403;-79
2021/05/07 08:14:27;;;;;;;12.57;2.55;;;17.30;99.90;;;;;;6212880;23;20001;-77
2021/05/07 08:16:53;;;;;;;8.15;2.28;;;17.30;99.90;;;;;;6211290;23;20009;-77
2021/05/07 08:19:19;;;;;;;20.50;3.38;;;17.20;99.90;;;;;;6212228;23;20336;-77
2021/05/07 08:21:44;;;;;;;18.25;3.17;;;17.30;99.90;;;;;;6186749;23;20004;-81
2021/05/07 08:24:11;;;;;;;15.10;2.33;;;17.40;99.90;;;;;;6213036;23;19996;-80
2021/05/07 08:26:37;;;;;;;13.85;2.58;;;17.40;99.90;;;;;;6213688;23;20066;-82
2021/05/07 08:29:03;;;;;;;13.73;2.33;;;17.50;99.90;;;;;;6211493;23;20020;-80
2021/05/07 08:31:29;;;;;;;7.80;2.08;;;17.50;99.90;;;;;;6211565;23;20297;-80
2021/05/07 08:33:55;;;;;;;15.27;3.10;;;17.50;99.90;;;;;;6213334;23;20075;-81
2021/05/07 08:36:20;;;;;;;13.43;2.50;;;17.50;99.90;;;;;;6213395;23;20019;-81
2021/05/07 08:38:46;;;;;;;10.27;2.30;;;17.40;99.90;;;;;;6213060;23;20431;-79
2021/05/07 08:41:12;;;;;;;8.07;2.55;;;17.50;99.90;;;;;;6212718;23;20044;-81
2021/05/07 08:43:37;;;;;;;9.65;2.20;;;17.50;99.90;;;;;;6212727;23;20007;-81
2021/05/07 08:46:07;;;;;;;18.20;3.40;;;17.50;99.90;;;;;;6213161;23;19996;-81
2021/05/07 08:48:34;;;;;;;16.85;2.72;;;17.50;99.90;;;;;;6212304;23;20444;-80
2021/05/07 08:51:01;;;;;;;11.63;2.70;;;17.50;99.90;;;;;;6213255;23;20005;-81
2021/05/07 08:53:27;;;;;;;15.52;3.78;;;17.60;99.90;;;;;;6186840;23;20008;-83
2021/05/07 08:55:53;;;;;;;12.05;2.83;;;17.60;99.90;;;;;;6213296;23;20533;-79
2021/05/07 08:58:19;;;;;;;16.02;2.97;;;17.70;99.90;;;;;;6213963;23;20051;-79
2021/05/07 09:00:45;;;;;;;11.63;3.42;;;17.70;99.90;;;;;;6212358;23;20408;-79
2021/05/07 09:03:16;;;;;;;14.90;3.55;;;17.70;99.90;;;;;;6214045;23;20510;-79
2021/05/07 09:05:42;;;;;;;13.40;2.50;;;17.70;99.90;;;;;;6213985;23;20001;-81
2021/05/07 09:08:09;;;;;;;14.23;2.72;;;17.70;99.90;;;;;;6214047;23;20040;-79
2021/05/07 09:10:46;;;;;;;10.90;2.80;;;17.70;99.90;;;;;;6213780;23;20031;-79
2021/05/07 09:13:14;;;;;;;11.93;3.60;;;17.70;99.90;;;;;;6213990;23;20001;-79
2021/05/07 09:15:44;;;;;;;17.02;3.83;;;17.80;99.90;;;;;;6214081;23;20238;-80
2021/05/07 09:18:14;;;;;;;12.98;2.72;;;17.90;99.90;;;;;;6214039;23;20004;-79
2021/05/07 09:20:47;;;;;;;13.57;2.80;;;17.90;99.90;;;;;;6214064;23;19996;-79
2021/05/07 09:23:13;;;;;;;13.75;2.33;;;17.90;99.90;;;;;;6212145;23;20005;-78
2021/05/07 09:25:40;;;;;;;10.90;2.70;;;17.90;99.90;;;;;;6213715;23;20363;-78
2021/05/07 09:28:08;;;;;;;15.13;2.90;;;17.90;99.90;;;;;;6213844;23;20507;-79
2021/05/07 09:30:34;;;;;;;15.13;3.42;;;17.90;99.90;;;;;;6213306;23;20440;-81
2021/05/07 09:32:59;;;;;;;11.15;2.85;;;17.90;99.90;;;;;;6212368;23;20031;-79
2021/05/07 09:35:30;;;;;;;18.55;3.50;;;18.00;99.90;;;;;;6213315;23;20012;-80
2021/05/07 09:38:08;;;;;;;13.65;6.50;;;18.00;99.90;;;;;;6214002;23;20067;-78
2021/05/07 09:40:36;;;;;;;10.20;2.55;;;18.10;99.90;;;;;;6212039;23;20004;-79
2021/05/07 09:43:18;;;;;;;10.65;3.67;;;18.10;99.90;;;;;;6213580;23;19996;-79
2021/05/07 09:45:48;;;;;;;13.48;3.10;;;18.20;99.90;;;;;;6213916;23;20027;-79
2021/05/07 09:48:19;;;;;;;8.88;2.38;;;18.20;99.90;;;;;;6212172;23;20047;-78
2021/05/07 09:50:47;;;;;;;10.20;2.20;;;18.20;99.90;;;;;;6213802;23;20008;-79
2021/05/07 09:53:20;;;;;;;12.13;2.90;;;18.20;99.90;;;;;;6213285;23;20001;-80
2021/05/07 09:55:50;;;;;;;15.73;2.88;;;18.30;99.90;;;;;;6212342;23;20239;-80
2021/05/07 09:58:16;;;;;;;8.20;3.22;;;18.30;99.90;;;;;;6211883;23;20080;-78
2021/05/07 10:00:43;;;;;;;8.88;2.90;;;18.20;99.90;;;;;;6211614;23;20062;-80
2021/05/07 10:03:08;;;;;;;10.63;3.08;;;18.20;99.90;;;;;;6211875;23;20012;-79
2021/05/07 10:05:35;;;;;;;36.50;17.00;;;18.20;99.90;;;;;;6211718;23;20001;-78
2021/05/07 10:08:01;;;;;;;18.63;3.75;;;18.20;99.90;;;;;;6211640;23;20176;-78
2021/05/07 10:10:38;;;;;;;14.47;4.77;;;18.30;99.90;;;;;;6211863;23;20034;-78
2021/05/07 10:13:14;;;;;;;8.75;3.00;;;18.20;99.90;;;;;;6211852;23;20341;-78
2021/05/07 10:15:41;;;;;;;15.00;3.30;;;18.20;99.90;;;;;;6211573;23;20008;-78
2021/05/07 10:18:09;;;;;;;13.05;4.97;;;18.10;99.90;;;;;;6213459;23;20008;-78
2021/05/07 10:20:37;;;;;;;18.38;3.80;;;18.10;99.90;;;;;;6211532;23;20082;-79
2021/05/07 10:23:33;;;;;;;12.02;5.22;;;18.10;99.90;;;;;;6211657;23;20009;-78
2021/05/07 10:26:07;;;;;;;12.70;5.40;;;18.00;99.90;;;;;;6194689;23;20001;-78
2021/05/07 10:28:50;;;;;;;22.05;7.78;;;17.90;99.90;;;;;;6212840;23;20012;-79
2021/05/07 10:31:17;;;;;;;13.20;3.45;;;17.90;99.90;;;;;;6213347;23;20004;-78
2021/05/07 10:34:03;;;;;;;12.90;3.70;;;18.00;99.90;;;;;;6212866;23;20005;-79
2021/05/07 10:36:43;;;;;;;12.35;3.38;;;18.00;99.90;;;;;;6212896;23;20391;-78
2021/05/07 10:39:34;;;;;;;15.70;3.00;;;18.10;99.90;;;;;;6212731;23;20000;-78
2021/05/07 10:42:02;;;;;;;13.73;2.97;;;18.10;99.90;;;;;;6208818;23;20068;-80
2021/05/07 10:44:39;;;;;;;10.48;2.45;;;18.10;99.90;;;;;;6212750;23;20001;-77
2021/05/07 10:47:07;;;;;;;12.32;3.28;;;18.10;99.90;;;;;;6211534;23;20008;-79
2021/05/07 10:49:35;;;;;;;12.68;3.25;;;18.00;99.90;;;;;;6213014;23;20058;-78
2021/05/07 10:52:01;;;;;;;12.05;2.55;;;18.00;99.90;;;;;;6213067;23;20083;-79
2021/05/07 10:54:49;;;;;;;5.18;2.00;;;18.10;99.90;;;;;;6212725;23;20424;-78
2021/05/07 10:57:29;;;;;;;8.63;2.38;;;18.20;99.90;;;;;;6213061;23;20004;-77
2021/05/07 11:00:08;;;;;;;10.25;2.45;;;18.20;99.90;;;;;;6212840;23;20080;-78
2021/05/07 11:02:48;;;;;;;13.25;2.50;;;18.30;99.90;;;;;;6212973;23;20095;-79
2021/05/07 11:05:49;;;;;;;52.10;24.58;;;18.40;99.90;;;;;;6211503;23;20004;-79
2021/05/07 11:08:16;;;;;;;15.85;4.68;;;18.50;99.90;;;;;;6208655;23;20024;-78
2021/05/07 11:10:42;;;;;;;12.85;3.30;;;18.60;99.90;;;;;;6206900;23;20015;-80
2021/05/07 11:13:09;;;;;;;10.13;2.33;;;18.80;99.90;;;;;;6208919;23;20332;-78
2021/05/07 11:15:36;;;;;;;16.27;3.80;;;18.80;99.90;;;;;;6208531;23;20005;-79
2021/05/07 11:18:06;;;;;;;14.77;3.28;;;18.70;99.90;;;;;;6209195;23;20008;-80
2021/05/07 11:20:36;;;;;;;14.32;2.72;;;18.60;99.90;;;;;;6206489;23;20071;-78
2021/05/07 11:23:04;;;;;;;12.63;2.50;;;18.60;99.90;;;;;;6208776;23;20001;-78
2021/05/07 11:25:34;;;;;;;11.25;2.50;;;18.70;99.90;;;;;;6206865;23;20091;-79
2021/05/07 11:28:11;;;;;;;13.50;2.17;;;18.70;99.90;;;;;;6208980;23;20013;-79
2021/05/07 11:30:51;;;;;;;9.45;2.63;;;18.60;99.90;;;;;;6206620;23;20448;-78
2021/05/07 11:33:19;;;;;;;11.40;2.33;;;18.60;99.90;;;;;;6208343;23;20119;-78
2021/05/07 11:35:45;;;;;;;8.98;2.90;;;18.70;99.90;;;;;;6208568;23;20019;-78
2021/05/07 11:38:11;;;;;;;10.93;2.78;;;18.70;99.90;;;;;;6208791;23;20028;-78
2021/05/07 11:40:39;;;;;;;9.88;2.50;;;18.80;99.90;;;;;;6208592;23;20050;-81
2021/05/07 11:43:10;;;;;;;15.25;2.92;;;18.90;99.90;;;;;;6208742;23;20029;-78
2021/05/07 11:45:36;;;;;;;14.85;2.45;;;19.00;99.90;;;;;;6207790;23;20004;-79
2021/05/07 11:48:13;;;;;;;11.52;2.30;;;19.20;99.90;;;;;;6208809;23;20095;-78
2021/05/07 11:50:40;;;;;;;13.30;2.47;;;19.40;99.90;;;;;;6207009;23;20063;-79
2021/05/07 11:53:17;;;;;;;14.65;2.17;;;19.60;99.90;;;;;;6208399;23;20020;-79
2021/05/07 11:55:43;;;;;;;11.35;2.05;;;19.90;99.90;;;;;;6207065;23;20009;-78
2021/05/07 11:58:09;;;;;;;10.35;2.30;;;20.00;99.90;;;;;;6208584;23;20330;-79
2021/05/07 12:00:37;;;;;;;11.32;2.38;;;20.10;99.90;;;;;;6208090;23;20001;-79
2021/05/07 12:03:04;;;;;;;15.77;2.33;;;20.10;99.90;;;;;;6208621;23;20440;-78
2021/05/07 12:05:36;;;;;;;18.13;2.80;;;20.10;99.90;;;;;;6206628;23;20004;-79
2021/05/07 12:08:03;;;;;;;11.35;2.70;;;20.20;99.90;;;;;;6208306;23;20379;-78
2021/05/07 12:10:30;;;;;;;12.32;2.50;;;20.50;99.90;;;;;;6206458;23;20017;-79
2021/05/07 12:12:57;;;;;;;28.27;2.72;;;20.60;99.90;;;;;;6208334;23;20017;-79
2021/05/07 12:15:27;;;;;;;16.80;3.05;;;20.90;99.90;;;;;;6208351;23;20040;-80
2021/05/07 12:17:55;;;;;;;16.02;2.83;;;21.10;99.90;;;;;;6208689;23;20005;-80
2021/05/07 12:20:23;;;;;;;11.55;2.97;;;21.40;99.90;;;;;;6208445;23;20032;-79
2021/05/07 12:22:52;;;;;;;12.80;1.88;;;21.60;99.90;;;;;;6206771;23;20091;-79
2021/05/07 12:25:28;;;;;;;13.25;2.28;;;21.80;99.90;;;;;;6209391;23;20060;-79
2021/05/07 12:27:55;;;;;;;13.02;2.55;;;21.80;99.90;;;;;;6210316;23;20021;-79
2021/05/07 12:30:24;;;;;;;10.85;2.75;;;21.60;99.90;;;;;;6210115;23;20004;-79
2021/05/07 12:33:02;;;;;;;8.23;2.05;;;21.60;99.90;;;;;;6208554;23;20004;-79
2021/05/07 12:35:36;;;;;;;12.13;2.35;;;21.40;99.90;;;;;;6209631;23;20048;-79
2021/05/07 12:38:17;;;;;;;12.80;2.53;;;21.20;99.90;;;;;;6209508;23;20009;-78
2021/05/07 12:40:43;;;;;;;9.65;1.95;;;21.30;99.90;;;;;;6208713;23;20328;-79
2021/05/07 12:43:09;;;;;;;8.95;2.60;;;21.90;99.90;;;;;;6210071;23;20012;-79
2021/05/07 12:45:34;;;;;;;9.65;2.60;;;22.20;99.70;;;;;;6209945;23;20001;-80